createdAt,value
2023-05-21T00:01:18.281Z,5.63
2023-05-21T00:03:46.282Z,5.10
2023-05-21T00:06:16.127Z,5.55
2023-05-21T00:08:44.042Z,4.95
2023-05-21T00:11:10.965Z,6.75
2023-05-21T00:13:38.606Z,4.15
2023-05-21T00:16:05.729Z,7.05
2023-05-21T00:18:34.283Z,5.85
2023-05-21T00:21:01.792Z,5.13
2023-05-21T00:23:29.017Z,3.95
2023-05-21T00:25:56.317Z,4.30
2023-05-21T00:28:22.985Z,5.00
2023-05-21T00:30:49.765Z,5.55
2023-05-21T00:33:16.521Z,7.40
2023-05-21T00:35:43.277Z,5.40
2023-05-21T00:38:10.030Z,4.68
2023-05-21T00:40:36.800Z,4.82
2023-05-21T00:43:03.711Z,4.60
2023-05-21T00:45:30.497Z,5.30
2023-05-21T00:47:57.794Z,4.63
2023-05-21T00:50:24.637Z,6.63
2023-05-21T00:52:51.795Z,4.78
2023-05-21T00:55:18.441Z,6.57
2023-05-21T00:57:46.085Z,6.22
2023-05-21T01:00:14.793Z,4.68
2023-05-21T01:02:42.405Z,6.30
2023-05-21T01:05:10.698Z,5.47
2023-05-21T01:07:39.895Z,4.97
2023-05-21T01:10:08.535Z,4.90
2023-05-21T01:12:40.850Z,5.70
2023-05-21T01:15:10.820Z,5.53
2023-05-21T01:17:39.134Z,5.75
2023-05-21T01:20:10.443Z,7.78
2023-05-21T01:22:42.704Z,6.45
2023-05-21T01:25:10.762Z,5.60
2023-05-21T01:27:37.458Z,5.72
2023-05-21T01:30:05.326Z,9.35
2023-05-21T01:32:37.986Z,4.90
2023-05-21T01:35:07.068Z,5.38
2023-05-21T01:37:59.386Z,6.05
2023-05-21T01:40:28.425Z,4.90
2023-05-21T01:42:55.905Z,8.63
2023-05-21T01:45:24.220Z,6.47
2023-05-21T01:47:53.929Z,5.10
2023-05-21T01:50:24.550Z,5.55
2023-05-21T01:53:01.147Z,5.53
2023-05-21T01:55:30.766Z,7.40
2023-05-21T01:58:00.017Z,6.85
2023-05-21T02:00:29.440Z,5.75
2023-05-21T02:02:56.444Z,7.55
2023-05-21T02:05:23.350Z,5.95
2023-05-21T02:07:52.002Z,7.20
2023-05-21T02:10:19.267Z,4.47
2023-05-21T02:12:46.259Z,5.28
2023-05-21T02:15:18.142Z,5.00
2023-05-21T02:17:46.555Z,7.50
2023-05-21T02:20:13.830Z,6.15
2023-05-21T02:22:41.792Z,6.38
2023-05-21T02:25:09.640Z,6.05
2023-05-21T02:27:37.642Z,5.43
2023-05-21T02:30:06.870Z,5.20
2023-05-21T02:32:35.110Z,5.93
2023-05-21T02:35:03.967Z,5.28
2023-05-21T02:37:34.511Z,8.55
2023-05-21T02:40:04.187Z,8.90
2023-05-21T02:42:31.007Z,6.53
2023-05-21T02:45:02.290Z,5.88
2023-05-21T02:47:29.441Z,7.15
2023-05-21T02:50:00.327Z,7.30
2023-05-21T02:52:27.535Z,6.82
2023-05-21T02:54:54.352Z,8.45
2023-05-21T02:57:21.214Z,7.85
2023-05-21T02:59:48.187Z,12.45
2023-05-21T03:02:14.947Z,6.50
2023-05-21T03:04:46.097Z,8.77
2023-05-21T03:07:14.610Z,7.13
2023-05-21T03:09:42.156Z,7.60
2023-05-21T03:12:11.044Z,7.82
2023-05-21T03:14:38.070Z,8.07
2023-05-21T03:17:06.181Z,7.72
2023-05-21T03:19:35.805Z,4.82
2023-05-21T03:22:04.501Z,7.90
2023-05-21T03:24:34.373Z,9.73
2023-05-21T03:27:02.320Z,8.90
2023-05-21T03:29:29.200Z,10.77
2023-05-21T03:31:56.859Z,8.82
2023-05-21T03:34:24.076Z,9.43
2023-05-21T03:36:51.157Z,8.90
2023-05-21T03:39:18.926Z,9.80
2023-05-21T03:41:45.692Z,7.47
2023-05-21T03:44:20.469Z,9.98
2023-05-21T03:46:53.157Z,8.25
2023-05-21T03:49:26.799Z,9.50
2023-05-21T03:51:56.170Z,8.18
2023-05-21T03:54:23.864Z,8.82
2023-05-21T03:56:53.708Z,11.43
2023-05-21T03:59:20.764Z,8.23
2023-05-21T04:01:47.932Z,7.07
2023-05-21T04:04:16.958Z,11.23
2023-05-21T04:06:46.200Z,8.00
2023-05-21T04:09:13.101Z,9.50
2023-05-21T04:11:39.890Z,11.40
2023-05-21T04:14:06.638Z,7.88
2023-05-21T04:16:35.487Z,8.55
2023-05-21T04:19:03.684Z,9.93
2023-05-21T04:21:32.213Z,7.93
2023-05-21T04:24:00.740Z,7.25
2023-05-21T04:26:42.381Z,14.35
2023-05-21T04:29:10.064Z,6.70
2023-05-21T04:31:36.903Z,6.45
2023-05-21T04:34:05.006Z,8.30
2023-05-21T04:36:31.968Z,8.88
2023-05-21T04:38:58.676Z,8.70
2023-05-21T04:41:25.355Z,7.63
2023-05-21T04:43:55.389Z,8.88
2023-05-21T04:46:26.821Z,6.15
2023-05-21T04:48:56.975Z,6.28
2023-05-21T04:51:27.062Z,8.90
2023-05-21T04:53:58.116Z,7.68
2023-05-21T04:56:27.845Z,9.05
2023-05-21T04:58:54.570Z,8.05
2023-05-21T05:01:27.266Z,8.20
2023-05-21T05:03:54.242Z,9.48
2023-05-21T05:06:21.595Z,8.68
2023-05-21T05:08:51.089Z,7.82
2023-05-21T05:11:17.816Z,8.43
2023-05-21T05:13:44.587Z,7.78
2023-05-21T05:16:11.357Z,8.65
2023-05-21T05:18:41.547Z,6.90
2023-05-21T05:21:08.418Z,9.38
2023-05-21T05:23:35.185Z,9.73
2023-05-21T05:26:01.881Z,8.45
2023-05-21T05:28:28.757Z,7.43
2023-05-21T05:30:55.589Z,9.70
2023-05-21T05:33:24.827Z,8.75
2023-05-21T05:35:55.061Z,9.23
2023-05-21T05:38:22.198Z,11.00
2023-05-21T05:40:48.931Z,7.25
2023-05-21T05:43:16.652Z,9.65
2023-05-21T05:45:43.835Z,9.77
2023-05-21T05:48:13.957Z,12.88
2023-05-21T05:50:44.370Z,9.30
2023-05-21T05:53:13.378Z,9.18
2023-05-21T05:55:40.876Z,7.32
2023-05-21T05:58:07.801Z,9.38
2023-05-21T06:00:46.935Z,6.78
2023-05-21T06:03:14.039Z,12.15
2023-05-21T06:05:42.194Z,9.35
2023-05-21T06:08:08.937Z,7.35
2023-05-21T06:10:35.593Z,12.15
2023-05-21T06:13:03.690Z,8.20
2023-05-21T06:15:33.542Z,9.27
2023-05-21T06:18:00.532Z,11.60
2023-05-21T06:20:30.374Z,8.35
2023-05-21T06:22:57.330Z,9.80
2023-05-21T06:25:25.728Z,10.40
2023-05-21T06:27:52.442Z,8.75
2023-05-21T06:30:27.232Z,8.70
2023-05-21T06:32:56.289Z,9.85
2023-05-21T06:35:23.822Z,9.02
2023-05-21T06:37:50.491Z,9.65
2023-05-21T06:40:17.191Z,7.90
2023-05-21T06:42:45.835Z,9.07
2023-05-21T06:45:21.779Z,9.15
2023-05-21T06:47:51.756Z,9.32
2023-05-21T06:50:18.816Z,8.88
2023-05-21T06:52:45.630Z,7.40
2023-05-21T06:55:13.008Z,9.15
2023-05-21T06:57:58.877Z,11.27
2023-05-21T07:00:25.837Z,9.30
2023-05-21T07:02:53.571Z,10.27
2023-05-21T07:05:20.558Z,9.57
2023-05-21T07:07:50.032Z,10.85
2023-05-21T07:10:16.789Z,11.65
2023-05-21T07:12:43.570Z,8.02
2023-05-21T07:15:10.952Z,9.35
2023-05-21T07:17:38.931Z,10.40
2023-05-21T07:20:08.780Z,8.68
2023-05-21T07:22:42.970Z,11.27
2023-05-21T07:25:13.428Z,8.73
2023-05-21T07:27:40.207Z,9.82
2023-05-21T07:30:07.948Z,10.57
2023-05-21T07:32:35.256Z,12.27
2023-05-21T07:35:02.137Z,10.32
2023-05-21T07:37:30.740Z,10.80
2023-05-21T07:40:01.019Z,8.90
2023-05-21T07:42:28.279Z,11.63
2023-05-21T07:44:56.800Z,10.15
2023-05-21T07:47:25.696Z,10.73
2023-05-21T07:49:52.475Z,9.55
2023-05-21T07:52:19.343Z,8.55
2023-05-21T07:54:46.106Z,9.38
2023-05-21T07:57:13.006Z,12.98
2023-05-21T07:59:48.773Z,11.65
2023-05-21T08:02:15.758Z,13.57
2023-05-21T08:04:43.225Z,10.60
2023-05-21T08:07:10.735Z,12.50
2023-05-21T08:09:37.538Z,10.55
2023-05-21T08:12:04.914Z,11.32
2023-05-21T08:14:32.063Z,15.80
2023-05-21T08:16:59.767Z,12.00
2023-05-21T08:19:26.451Z,14.20
2023-05-21T08:21:53.394Z,11.05
2023-05-21T08:24:21.899Z,12.30
2023-05-21T08:26:50.653Z,12.43
2023-05-21T08:29:18.162Z,13.95
2023-05-21T08:31:45.219Z,12.55
2023-05-21T08:34:12.206Z,11.48
2023-05-21T08:36:49.955Z,11.18
2023-05-21T08:39:37.040Z,12.32
2023-05-21T08:42:36.534Z,13.32
2023-05-21T08:45:06.716Z,15.52
2023-05-21T08:47:36.032Z,11.48
2023-05-21T08:50:08.629Z,14.88
2023-05-21T08:52:35.437Z,9.70
2023-05-21T08:55:04.525Z,13.48
2023-05-21T08:57:35.237Z,14.55
2023-05-21T09:00:04.730Z,13.02
2023-05-21T09:02:35.395Z,12.57
2023-05-21T09:05:04.466Z,14.63
2023-05-21T09:07:34.491Z,13.32
2023-05-21T09:10:19.932Z,14.02
2023-05-21T09:12:48.880Z,14.18
2023-05-21T09:15:15.779Z,12.88
2023-05-21T09:17:42.624Z,12.88
2023-05-21T09:20:32.380Z,11.88
2023-05-21T09:23:08.028Z,11.82
2023-05-21T09:25:38.139Z,14.48
2023-05-21T09:28:15.825Z,16.13
2023-05-21T09:30:47.268Z,14.75
2023-05-21T09:33:26.202Z,14.18
2023-05-21T09:35:53.470Z,14.00
2023-05-21T09:38:22.994Z,16.50
2023-05-21T09:40:49.751Z,17.50
2023-05-21T09:43:17.935Z,16.85
2023-05-21T09:45:58.945Z,16.45
2023-05-21T09:48:42.041Z,14.50
2023-05-21T09:51:19.548Z,13.55
2023-05-21T09:53:54.462Z,13.95
2023-05-21T09:56:26.530Z,15.27
2023-05-21T09:58:57.588Z,13.73
2023-05-21T10:01:25.057Z,13.85
2023-05-21T10:03:56.939Z,13.27
2023-05-21T10:06:29.822Z,13.35
2023-05-21T10:08:59.133Z,13.05
2023-05-21T10:11:27.416Z,11.48
2023-05-21T10:14:09.113Z,11.75
2023-05-21T10:16:37.523Z,11.80
2023-05-21T10:19:10.857Z,10.30
2023-05-21T10:21:39.951Z,13.75
2023-05-21T10:24:08.504Z,11.80
2023-05-21T10:26:36.321Z,11.18
2023-05-21T10:29:03.413Z,11.95
2023-05-21T10:31:30.199Z,10.80
2023-05-21T10:33:57.267Z,11.30
2023-05-21T10:36:31.826Z,13.35
2023-05-21T10:39:00.660Z,11.38
2023-05-21T10:41:32.127Z,10.77
2023-05-21T10:44:30.977Z,10.40
2023-05-21T10:47:24.003Z,12.02
2023-05-21T10:50:17.894Z,11.88
2023-05-21T10:53:09.953Z,9.80
2023-05-21T10:55:43.484Z,11.57
2023-05-21T10:58:38.118Z,12.40
2023-05-21T11:01:05.809Z,12.80
2023-05-21T11:03:36.686Z,12.10
2023-05-21T11:06:11.465Z,9.82
2023-05-21T11:08:39.014Z,11.82
2023-05-21T11:11:06.204Z,10.75
2023-05-21T11:13:49.078Z,12.40
2023-05-21T11:16:16.910Z,12.50
2023-05-21T11:18:46.487Z,10.88
2023-05-21T11:21:17.955Z,10.57
2023-05-21T11:23:50.861Z,10.95
2023-05-21T11:26:22.531Z,11.32
2023-05-21T11:29:04.657Z,13.43
2023-05-21T11:31:39.564Z,12.80
2023-05-21T11:34:13.801Z,13.35
2023-05-21T11:36:44.461Z,16.05
2023-05-21T11:39:17.709Z,11.38
2023-05-21T11:42:04.520Z,12.60
2023-05-21T11:44:44.642Z,11.50
2023-05-21T11:47:13.465Z,10.70
2023-05-21T11:49:40.130Z,12.65
2023-05-21T11:52:08.871Z,14.10
2023-05-21T11:54:48.687Z,14.00
2023-05-21T11:57:17.262Z,11.40
2023-05-21T11:59:53.583Z,11.80
2023-05-21T12:02:22.235Z,10.82
2023-05-21T12:04:52.012Z,11.60
2023-05-21T12:07:20.299Z,10.88
2023-05-21T12:09:49.316Z,13.32
2023-05-21T12:12:21.438Z,11.45
2023-05-21T12:14:53.193Z,14.90
2023-05-21T12:17:23.870Z,11.30
2023-05-21T12:20:01.759Z,12.20
2023-05-21T12:22:29.820Z,12.55
2023-05-21T12:24:58.319Z,11.95
2023-05-21T12:27:25.208Z,14.73
2023-05-21T12:29:53.110Z,12.82
2023-05-21T12:32:22.110Z,12.55
2023-05-21T12:34:54.699Z,12.60
2023-05-21T12:37:32.577Z,12.07
2023-05-21T12:40:01.283Z,13.65
2023-05-21T12:42:35.605Z,12.20
2023-05-21T12:45:11.899Z,11.73
2023-05-21T12:47:38.689Z,11.30
2023-05-21T12:50:09.476Z,11.95
2023-05-21T12:52:36.211Z,12.35
2023-05-21T12:55:04.307Z,13.00
2023-05-21T12:57:40.740Z,11.40
2023-05-21T13:00:11.327Z,12.63
2023-05-21T13:02:42.691Z,14.10
2023-05-21T13:05:17.206Z,10.93
2023-05-21T13:07:46.912Z,16.00
2023-05-21T13:10:16.863Z,13.10
2023-05-21T13:12:44.632Z,12.35
2023-05-21T13:15:11.753Z,12.25
2023-05-21T13:17:41.347Z,12.27
2023-05-21T13:20:12.777Z,12.02
2023-05-21T13:22:46.587Z,13.02
2023-05-21T13:25:25.113Z,11.60
2023-05-21T13:27:53.010Z,11.52
2023-05-21T13:30:20.904Z,13.13
2023-05-21T13:32:48.876Z,10.57
2023-05-21T13:35:16.631Z,11.10
2023-05-21T13:37:43.604Z,11.35
2023-05-21T13:40:11.900Z,9.95
2023-05-21T13:42:39.173Z,14.27
2023-05-21T13:45:10.462Z,9.90
2023-05-21T13:47:39.988Z,10.45
2023-05-21T13:50:08.327Z,9.82
2023-05-21T13:52:35.293Z,9.68
2023-05-21T13:55:02.143Z,12.30
2023-05-21T13:57:30.850Z,10.73
2023-05-21T13:59:58.397Z,10.80
2023-05-21T14:02:25.605Z,10.05
2023-05-21T14:04:52.516Z,13.38
2023-05-21T14:07:19.230Z,10.10
2023-05-21T14:09:47.586Z,10.43
2023-05-21T14:12:14.316Z,9.38
2023-05-21T14:14:42.007Z,9.98
2023-05-21T14:17:08.755Z,10.82
2023-05-21T14:19:35.778Z,12.45
2023-05-21T14:22:02.521Z,10.48
2023-05-21T14:24:29.220Z,8.48
2023-05-21T14:26:55.856Z,11.77
2023-05-21T14:29:22.481Z,9.82
2023-05-21T14:31:49.276Z,10.43
2023-05-21T14:34:16.018Z,10.10
2023-05-21T14:36:42.693Z,9.27
2023-05-21T14:39:09.338Z,9.50
2023-05-21T14:41:39.522Z,8.85
2023-05-21T14:44:06.197Z,10.50
2023-05-21T14:46:33.103Z,13.65
2023-05-21T14:49:00.640Z,9.40
2023-05-21T14:51:27.465Z,8.88
2023-05-21T14:53:54.257Z,10.30
2023-05-21T14:56:21.967Z,10.50
2023-05-21T14:58:48.932Z,10.27
2023-05-21T15:01:15.815Z,10.93
2023-05-21T15:03:42.670Z,9.38
2023-05-21T15:06:09.518Z,8.25
2023-05-21T15:08:36.242Z,9.20
2023-05-21T15:11:02.908Z,10.15
2023-05-21T15:13:29.598Z,11.27
2023-05-21T15:15:56.379Z,11.05
2023-05-21T15:18:24.712Z,10.60
2023-05-21T15:20:51.677Z,11.05
2023-05-21T15:23:18.726Z,9.27
2023-05-21T15:25:45.953Z,9.32
2023-05-21T15:28:12.916Z,9.38
2023-05-21T15:30:40.292Z,9.82
2023-05-21T15:33:07.004Z,12.80
2023-05-21T15:35:35.543Z,9.65
2023-05-21T15:38:02.778Z,9.63
2023-05-21T15:40:29.588Z,10.18
2023-05-21T15:42:56.278Z,10.55
2023-05-21T15:45:22.914Z,11.10
2023-05-21T15:47:49.601Z,9.98
2023-05-21T15:50:16.462Z,9.90
2023-05-21T15:52:43.222Z,10.80
2023-05-21T15:55:10.188Z,9.27
2023-05-21T15:57:36.996Z,9.18
2023-05-21T16:00:05.441Z,11.52
2023-05-21T16:02:35.601Z,8.50
2023-05-21T16:05:02.426Z,11.15
2023-05-21T16:07:29.108Z,8.60
2023-05-21T16:09:55.788Z,9.48
2023-05-21T16:12:22.618Z,11.25
2023-05-21T16:14:52.073Z,9.45
2023-05-21T16:17:21.717Z,11.68
2023-05-21T16:19:48.439Z,9.32
2023-05-21T16:22:15.234Z,10.32
2023-05-21T16:24:41.896Z,9.52
2023-05-21T16:27:08.579Z,13.95
2023-05-21T16:29:35.319Z,9.48
2023-05-21T16:32:02.152Z,11.00
2023-05-21T16:34:28.868Z,8.00
2023-05-21T16:36:55.554Z,10.43
2023-05-21T16:39:22.338Z,10.45
2023-05-21T16:41:49.102Z,10.93
2023-05-21T16:44:15.755Z,10.90
2023-05-21T16:46:42.725Z,11.10
2023-05-21T16:49:09.541Z,9.00
2023-05-21T16:51:36.328Z,8.50
2023-05-21T16:54:04.818Z,8.40
2023-05-21T16:56:31.644Z,9.00
2023-05-21T16:58:58.526Z,11.65
2023-05-21T17:01:25.194Z,9.32
2023-05-21T17:03:54.359Z,14.98
2023-05-21T17:06:21.246Z,8.95
2023-05-21T17:08:47.928Z,10.05
2023-05-21T17:11:14.709Z,11.43
2023-05-21T17:13:41.874Z,11.65
2023-05-21T17:16:08.580Z,10.40
2023-05-21T17:18:35.372Z,8.38
2023-05-21T17:21:02.100Z,8.43
2023-05-21T17:23:28.764Z,11.25
2023-05-21T17:25:55.538Z,9.52
2023-05-21T17:28:22.264Z,10.38
2023-05-21T17:30:49.786Z,10.07
2023-05-21T17:33:16.894Z,9.73
2023-05-21T17:35:43.998Z,12.75
2023-05-21T17:38:10.818Z,17.80
2023-05-21T17:40:37.577Z,9.23
2023-05-21T17:43:05.186Z,8.82
2023-05-21T17:45:32.094Z,9.23
2023-05-21T17:48:00.424Z,10.80
2023-05-21T17:50:27.844Z,10.48
2023-05-21T17:52:54.580Z,11.40
2023-05-21T17:55:21.268Z,9.77
2023-05-21T17:57:47.970Z,9.40
2023-05-21T18:00:14.897Z,12.32
2023-05-21T18:02:41.571Z,9.93
2023-05-21T18:05:08.560Z,9.73
2023-05-21T18:07:35.290Z,11.00
2023-05-21T18:10:01.928Z,12.02
2023-05-21T18:12:28.661Z,10.70
2023-05-21T18:14:55.356Z,11.73
2023-05-21T18:17:22.057Z,9.90
2023-05-21T18:19:48.878Z,11.75
2023-05-21T18:22:15.595Z,9.05
2023-05-21T18:24:42.710Z,9.07
2023-05-21T18:27:09.481Z,10.48
2023-05-21T18:29:36.760Z,11.18
2023-05-21T18:32:04.145Z,10.77
2023-05-21T18:34:31.011Z,10.40
2023-05-21T18:36:58.778Z,10.68
2023-05-21T18:39:27.051Z,10.00
2023-05-21T18:42:11.588Z,13.27
2023-05-21T18:44:39.938Z,13.18
2023-05-21T18:47:07.751Z,10.70
2023-05-21T18:49:36.095Z,12.13
2023-05-21T18:52:04.043Z,10.85
2023-05-21T18:54:31.143Z,10.60
2023-05-21T18:57:00.236Z,11.65
2023-05-21T18:59:28.674Z,10.60
2023-05-21T19:01:55.492Z,13.50
2023-05-21T19:04:23.848Z,13.65
2023-05-21T19:06:52.564Z,10.90
2023-05-21T19:09:19.236Z,12.77
2023-05-21T19:11:46.026Z,12.20
2023-05-21T19:14:12.795Z,14.52
2023-05-21T19:16:39.559Z,11.10
2023-05-21T19:19:06.350Z,14.10
2023-05-21T19:21:33.568Z,11.63
2023-05-21T19:24:05.895Z,10.15
2023-05-21T19:26:32.928Z,11.05
2023-05-21T19:28:59.673Z,11.13
2023-05-21T19:31:26.468Z,10.52
2023-05-21T19:33:53.386Z,12.73
2023-05-21T19:36:21.219Z,10.48
2023-05-21T19:38:49.136Z,9.73
2023-05-21T19:41:16.960Z,12.20
2023-05-21T19:43:44.424Z,10.98
2023-05-21T19:46:11.348Z,13.15
2023-05-21T19:48:38.210Z,11.95
2023-05-21T19:51:05.130Z,11.30
2023-05-21T19:53:31.857Z,10.60
2023-05-21T19:55:58.616Z,11.40
2023-05-21T19:58:26.990Z,11.50
2023-05-21T20:00:58.575Z,14.18
2023-05-21T20:03:26.868Z,10.77
2023-05-21T20:05:54.240Z,10.50
2023-05-21T20:08:21.358Z,10.38
2023-05-21T20:10:50.503Z,11.00
2023-05-21T20:13:18.646Z,13.10
2023-05-21T20:15:45.607Z,11.05
2023-05-21T20:18:12.932Z,10.02
2023-05-21T20:20:41.283Z,10.10
2023-05-21T20:23:08.881Z,11.07
2023-05-21T20:25:35.828Z,10.15
2023-05-21T20:28:03.329Z,10.10
2023-05-21T20:30:34.916Z,10.60
2023-05-21T20:33:02.943Z,9.93
2023-05-21T20:35:30.197Z,10.38
2023-05-21T20:37:57.016Z,9.48
2023-05-21T20:40:23.698Z,10.45
2023-05-21T20:42:53.443Z,10.80
2023-05-21T20:45:21.066Z,10.85
2023-05-21T20:47:48.272Z,11.35
2023-05-21T20:50:17.516Z,10.40
2023-05-21T20:52:47.004Z,10.93
2023-05-21T20:55:14.909Z,10.68
2023-05-21T20:57:42.152Z,11.27
2023-05-21T21:00:11.871Z,10.02
2023-05-21T21:02:39.130Z,9.95
2023-05-21T21:05:06.686Z,10.80
2023-05-21T21:07:34.154Z,10.15
2023-05-21T21:10:01.405Z,9.88
2023-05-21T21:12:28.196Z,10.43
2023-05-21T21:14:55.012Z,10.18
2023-05-21T21:17:23.455Z,9.98
2023-05-21T21:19:50.317Z,11.13
2023-05-21T21:22:18.188Z,11.57
2023-05-21T21:24:45.620Z,11.38
2023-05-21T21:27:12.419Z,13.70
2023-05-21T21:29:39.183Z,11.80
2023-05-21T21:32:06.463Z,11.40
2023-05-21T21:34:33.141Z,11.75
2023-05-21T21:36:59.848Z,11.30
2023-05-21T21:39:28.989Z,10.95
2023-05-21T21:41:55.834Z,11.70
2023-05-21T21:44:22.569Z,11.32
2023-05-21T21:46:49.446Z,13.05
2023-05-21T21:49:18.569Z,11.27
2023-05-21T21:51:45.616Z,13.35
2023-05-21T21:54:12.371Z,11.82
2023-05-21T21:56:39.182Z,11.60
2023-05-21T21:59:06.015Z,11.63
2023-05-21T22:01:33.163Z,12.10
2023-05-21T22:03:59.933Z,11.52
2023-05-21T22:06:27.699Z,11.95
2023-05-21T22:08:55.027Z,11.25
2023-05-21T22:11:21.967Z,11.25
2023-05-21T22:13:48.867Z,12.07
2023-05-21T22:16:15.658Z,12.38
2023-05-21T22:18:42.457Z,11.63
2023-05-21T22:21:10.596Z,11.02
2023-05-21T22:23:38.514Z,11.45
2023-05-21T22:26:05.862Z,11.45
2023-05-21T22:28:32.822Z,11.55
2023-05-21T22:30:59.610Z,12.05
2023-05-21T22:33:26.837Z,11.35
2023-05-21T22:35:54.467Z,11.95
2023-05-21T22:38:21.511Z,10.90
2023-05-21T22:40:48.425Z,11.55
2023-05-21T22:43:15.086Z,11.18
2023-05-21T22:45:42.192Z,11.63
2023-05-21T22:48:09.433Z,11.55
2023-05-21T22:50:38.238Z,11.57
2023-05-21T22:53:05.753Z,11.20
2023-05-21T22:55:32.453Z,12.10
2023-05-21T22:57:59.198Z,11.13
2023-05-21T23:00:26.398Z,11.50
2023-05-21T23:02:54.482Z,11.15
2023-05-21T23:05:21.754Z,12.90
2023-05-21T23:07:48.488Z,11.60
2023-05-21T23:10:15.335Z,11.73
2023-05-21T23:12:42.111Z,11.02
2023-05-21T23:15:09.998Z,11.52
2023-05-21T23:17:38.041Z,12.27
2023-05-21T23:20:08.907Z,12.02
2023-05-21T23:22:35.834Z,12.73
2023-05-21T23:25:02.752Z,10.63
2023-05-21T23:27:29.593Z,13.02
2023-05-21T23:29:56.420Z,11.27
2023-05-21T23:32:23.642Z,11.05
2023-05-21T23:34:50.712Z,10.45
2023-05-21T23:37:17.655Z,10.73
2023-05-21T23:39:48.168Z,10.43
2023-05-21T23:42:16.286Z,11.13
2023-05-21T23:44:43.070Z,10.73
2023-05-21T23:47:09.994Z,11.30
2023-05-21T23:49:36.739Z,12.65
2023-05-21T23:52:03.659Z,10.70
2023-05-21T23:54:30.740Z,10.57
2023-05-21T23:56:57.564Z,11.50
2023-05-21T23:59:24.299Z,9.88
